sensor_id;sensor_type;location;lat;lon;timestamp;P1;durP1;ratioP1;P2;durP2;ratioP2
54259;SDS011;40172;53.022;7.012;2023-07-31T00:00:10;8.05;;;2.83;;
54259;SDS011;40172;53.022;7.012;2023-07-31T00:02:36;6.95;;;2.85;;
54259;SDS011;40172;53.022;7.012;2023-07-31T00:05:02;7.97;;;2.35;;
54259;SDS011;40172;53.022;7.012;2023-07-31T00:07:27;5.25;;;2.47;;
54259;SDS011;40172;53.022;7.012;2023-07-31T00:09:53;5.40;;;2.92;;
54259;SDS011;40172;53.022;7.012;2023-07-31T00:12:19;6.22;;;2.78;;
54259;SDS011;40172;53.022;7.012;2023-07-31T00:14:45;5.18;;;2.90;;
54259;SDS011;40172;53.022;7.012;2023-07-31T00:17:11;6.03;;;2.83;;
54259;SDS011;40172;53.022;7.012;2023-07-31T00:19:36;5.70;;;3.03;;
54259;SDS011;40172;53.022;7.012;2023-07-31T00:22:02;5.63;;;2.60;;
54259;SDS011;40172;53.022;7.012;2023-07-31T00:24:28;4.07;;;2.60;;
54259;SDS011;40172;53.022;7.012;2023-07-31T00:26:53;3.17;;;2.50;;
54259;SDS011;40172;53.022;7.012;2023-07-31T00:29:19;6.18;;;3.00;;
54259;SDS011;40172;53.022;7.012;2023-07-31T00:31:44;5.88;;;3.05;;
54259;SDS011;40172;53.022;7.012;2023-07-31T00:34:10;8.10;;;3.13;;
54259;SDS011;40172;53.022;7.012;2023-07-31T00:36:36;6.22;;;2.90;;
54259;SDS011;40172;53.022;7.012;2023-07-31T00:39:01;7.25;;;3.10;;
54259;SDS011;40172;53.022;7.012;2023-07-31T00:41:27;6.03;;;3.20;;
54259;SDS011;40172;53.022;7.012;2023-07-31T00:43:52;6.35;;;3.20;;
54259;SDS011;40172;53.022;7.012;2023-07-31T00:46:18;8.32;;;3.20;;
54259;SDS011;40172;53.022;7.012;2023-07-31T00:48:44;6.05;;;3.50;;
54259;SDS011;40172;53.022;7.012;2023-07-31T00:51:10;5.78;;;3.00;;
54259;SDS011;40172;53.022;7.012;2023-07-31T00:53:36;5.07;;;3.05;;
54259;SDS011;40172;53.022;7.012;2023-07-31T00:56:02;6.30;;;3.30;;
54259;SDS011;40172;53.022;7.012;2023-07-31T00:58:29;7.78;;;3.10;;
54259;SDS011;40172;53.022;7.012;2023-07-31T01:00:55;6.20;;;3.00;;
54259;SDS011;40172;53.022;7.012;2023-07-31T01:03:20;7.93;;;3.08;;
54259;SDS011;40172;53.022;7.012;2023-07-31T01:05:51;6.05;;;3.35;;
54259;SDS011;40172;53.022;7.012;2023-07-31T01:08:42;4.35;;;2.97;;
54259;SDS011;40172;53.022;7.012;2023-07-31T01:11:17;4.07;;;2.90;;
54259;SDS011;40172;53.022;7.012;2023-07-31T01:13:50;4.68;;;3.17;;
54259;SDS011;40172;53.022;7.012;2023-07-31T01:16:16;5.53;;;3.20;;
54259;SDS011;40172;53.022;7.012;2023-07-31T01:18:42;5.95;;;3.00;;
54259;SDS011;40172;53.022;7.012;2023-07-31T01:21:32;5.38;;;3.10;;
54259;SDS011;40172;53.022;7.012;2023-07-31T01:27:12;6.13;;;3.15;;
54259;SDS011;40172;53.022;7.012;2023-07-31T01:32:17;7.10;;;3.15;;
54259;SDS011;40172;53.022;7.012;2023-07-31T01:34:44;4.38;;;2.80;;
54259;SDS011;40172;53.022;7.012;2023-07-31T01:37:11;7.63;;;2.83;;
54259;SDS011;40172;53.022;7.012;2023-07-31T01:39:37;4.68;;;2.53;;
54259;SDS011;40172;53.022;7.012;2023-07-31T01:42:02;3.70;;;2.58;;
54259;SDS011;40172;53.022;7.012;2023-07-31T01:44:28;5.43;;;2.78;;
54259;SDS011;40172;53.022;7.012;2023-07-31T01:46:54;3.78;;;2.50;;
54259;SDS011;40172;53.022;7.012;2023-07-31T01:49:19;6.38;;;2.45;;
54259;SDS011;40172;53.022;7.012;2023-07-31T01:51:45;4.45;;;2.50;;
54259;SDS011;40172;53.022;7.012;2023-07-31T01:54:10;5.72;;;2.50;;
54259;SDS011;40172;53.022;7.012;2023-07-31T01:56:36;7.22;;;2.28;;
54259;SDS011;40172;53.022;7.012;2023-07-31T01:59:02;5.18;;;2.10;;
54259;SDS011;40172;53.022;7.012;2023-07-31T02:01:27;1.42;;;0.80;;
54259;SDS011;40172;53.022;7.012;2023-07-31T02:03:53;1.38;;;0.90;;
54259;SDS011;40172;53.022;7.012;2023-07-31T02:06:19;2.45;;;1.60;;
54259;SDS011;40172;53.022;7.012;2023-07-31T02:08:44;3.40;;;1.40;;
54259;SDS011;40172;53.022;7.012;2023-07-31T02:11:10;8.55;;;1.80;;
54259;SDS011;40172;53.022;7.012;2023-07-31T02:13:35;4.07;;;1.58;;
54259;SDS011;40172;53.022;7.012;2023-07-31T02:16:01;3.45;;;1.63;;
54259;SDS011;40172;53.022;7.012;2023-07-31T02:18:27;2.45;;;1.55;;
54259;SDS011;40172;53.022;7.012;2023-07-31T02:20:53;4.10;;;1.48;;
54259;SDS011;40172;53.022;7.012;2023-07-31T02:23:18;2.85;;;1.20;;
54259;SDS011;40172;53.022;7.012;2023-07-31T02:25:44;2.17;;;1.30;;
54259;SDS011;40172;53.022;7.012;2023-07-31T02:28:11;3.67;;;1.38;;
54259;SDS011;40172;53.022;7.012;2023-07-31T02:30:36;2.55;;;1.30;;
54259;SDS011;40172;53.022;7.012;2023-07-31T02:33:03;1.67;;;1.10;;
54259;SDS011;40172;53.022;7.012;2023-07-31T02:35:29;1.95;;;1.13;;
54259;SDS011;40172;53.022;7.012;2023-07-31T02:37:55;1.98;;;1.10;;
54259;SDS011;40172;53.022;7.012;2023-07-31T02:40:21;1.75;;;0.90;;
54259;SDS011;40172;53.022;7.012;2023-07-31T02:42:46;3.55;;;1.00;;
54259;SDS011;40172;53.022;7.012;2023-07-31T02:45:12;1.88;;;1.00;;
54259;SDS011;40172;53.022;7.012;2023-07-31T02:47:38;2.90;;;1.00;;
54259;SDS011;40172;53.022;7.012;2023-07-31T02:50:03;4.90;;;1.08;;
54259;SDS011;40172;53.022;7.012;2023-07-31T02:52:29;1.60;;;1.10;;
54259;SDS011;40172;53.022;7.012;2023-07-31T02:54:55;2.83;;;1.10;;
54259;SDS011;40172;53.022;7.012;2023-07-31T02:57:20;1.33;;;0.98;;
54259;SDS011;40172;53.022;7.012;2023-07-31T02:59:46;1.52;;;1.10;;
54259;SDS011;40172;53.022;7.012;2023-07-31T03:02:11;1.75;;;1.15;;
54259;SDS011;40172;53.022;7.012;2023-07-31T03:04:38;3.63;;;1.17;;
54259;SDS011;40172;53.022;7.012;2023-07-31T03:07:04;5.70;;;1.30;;
54259;SDS011;40172;53.022;7.012;2023-07-31T03:09:30;1.85;;;1.20;;
54259;SDS011;40172;53.022;7.012;2023-07-31T03:11:55;2.67;;;1.38;;
54259;SDS011;40172;53.022;7.012;2023-07-31T03:14:21;3.33;;;1.40;;
54259;SDS011;40172;53.022;7.012;2023-07-31T03:16:47;2.88;;;1.10;;
54259;SDS011;40172;53.022;7.012;2023-07-31T03:19:12;2.28;;;1.27;;
54259;SDS011;40172;53.022;7.012;2023-07-31T03:21:38;1.20;;;1.00;;
54259;SDS011;40172;53.022;7.012;2023-07-31T03:24:04;2.17;;;1.15;;
54259;SDS011;40172;53.022;7.012;2023-07-31T03:26:31;3.45;;;1.20;;
54259;SDS011;40172;53.022;7.012;2023-07-31T03:28:56;1.30;;;1.20;;
54259;SDS011;40172;53.022;7.012;2023-07-31T03:31:22;1.80;;;1.20;;
54259;SDS011;40172;53.022;7.012;2023-07-31T03:33:47;1.48;;;1.00;;
54259;SDS011;40172;53.022;7.012;2023-07-31T03:36:13;3.00;;;1.10;;
54259;SDS011;40172;53.022;7.012;2023-07-31T03:38:38;4.28;;;1.17;;
54259;SDS011;40172;53.022;7.012;2023-07-31T03:41:04;2.78;;;1.20;;
54259;SDS011;40172;53.022;7.012;2023-07-31T03:43:31;4.88;;;1.05;;
54259;SDS011;40172;53.022;7.012;2023-07-31T03:45:58;1.90;;;1.45;;
54259;SDS011;40172;53.022;7.012;2023-07-31T03:48:25;3.28;;;1.77;;
54259;SDS011;40172;53.022;7.012;2023-07-31T03:50:50;4.47;;;1.48;;
54259;SDS011;40172;53.022;7.012;2023-07-31T03:53:16;2.03;;;1.50;;
54259;SDS011;40172;53.022;7.012;2023-07-31T03:55:42;2.60;;;1.30;;
54259;SDS011;40172;53.022;7.012;2023-07-31T03:58:07;8.57;;;1.77;;
54259;SDS011;40172;53.022;7.012;2023-07-31T04:00:33;3.80;;;1.73;;
54259;SDS011;40172;53.022;7.012;2023-07-31T04:02:58;5.57;;;1.60;;
54259;SDS011;40172;53.022;7.012;2023-07-31T04:05:24;4.97;;;1.70;;
54259;SDS011;40172;53.022;7.012;2023-07-31T04:07:49;3.17;;;1.80;;
54259;SDS011;40172;53.022;7.012;2023-07-31T04:10:15;2.85;;;1.80;;
54259;SDS011;40172;53.022;7.012;2023-07-31T04:12:41;4.28;;;1.85;;
54259;SDS011;40172;53.022;7.012;2023-07-31T04:15:06;1.23;;;0.57;;
54259;SDS011;40172;53.022;7.012;2023-07-31T04:17:32;3.90;;;1.85;;
54259;SDS011;40172;53.022;7.012;2023-07-31T04:19:58;4.60;;;1.80;;
54259;SDS011;40172;53.022;7.012;2023-07-31T04:22:23;4.88;;;1.77;;
54259;SDS011;40172;53.022;7.012;2023-07-31T04:24:49;3.42;;;2.00;;
54259;SDS011;40172;53.022;7.012;2023-07-31T04:27:14;2.75;;;1.60;;
54259;SDS011;40172;53.022;7.012;2023-07-31T04:29:40;2.40;;;1.63;;
54259;SDS011;40172;53.022;7.012;2023-07-31T04:32:07;3.40;;;1.60;;
54259;SDS011;40172;53.022;7.012;2023-07-31T04:34:33;3.60;;;1.60;;
54259;SDS011;40172;53.022;7.012;2023-07-31T04:36:58;2.55;;;1.60;;
54259;SDS011;40172;53.022;7.012;2023-07-31T04:39:24;4.22;;;1.70;;
54259;SDS011;40172;53.022;7.012;2023-07-31T04:41:49;3.72;;;1.50;;
54259;SDS011;40172;53.022;7.012;2023-07-31T04:44:15;3.15;;;1.60;;
54259;SDS011;40172;53.022;7.012;2023-07-31T04:46:41;2.83;;;1.60;;
54259;SDS011;40172;53.022;7.012;2023-07-31T04:49:06;3.78;;;1.50;;
54259;SDS011;40172;53.022;7.012;2023-07-31T04:51:32;4.63;;;1.77;;
54259;SDS011;40172;53.022;7.012;2023-07-31T04:53:57;3.95;;;1.60;;
54259;SDS011;40172;53.022;7.012;2023-07-31T04:56:23;3.67;;;1.58;;
54259;SDS011;40172;53.022;7.012;2023-07-31T04:58:49;3.90;;;1.60;;
54259;SDS011;40172;53.022;7.012;2023-07-31T05:01:14;3.58;;;1.50;;
54259;SDS011;40172;53.022;7.012;2023-07-31T05:03:40;5.70;;;1.85;;
54259;SDS011;40172;53.022;7.012;2023-07-31T05:06:05;3.85;;;1.60;;
54259;SDS011;40172;53.022;7.012;2023-07-31T05:08:31;3.40;;;1.60;;
54259;SDS011;40172;53.022;7.012;2023-07-31T05:10:56;3.65;;;1.70;;
54259;SDS011;40172;53.022;7.012;2023-07-31T05:13:22;2.33;;;1.33;;
54259;SDS011;40172;53.022;7.012;2023-07-31T05:15:47;1.40;;;1.20;;
54259;SDS011;40172;53.022;7.012;2023-07-31T05:18:14;2.65;;;1.20;;
54259;SDS011;40172;53.022;7.012;2023-07-31T05:20:40;2.95;;;1.20;;
54259;SDS011;40172;53.022;7.012;2023-07-31T05:23:06;2.92;;;1.20;;
54259;SDS011;40172;53.022;7.012;2023-07-31T05:25:32;5.15;;;1.30;;
54259;SDS011;40172;53.022;7.012;2023-07-31T05:27:57;1.75;;;1.15;;
54259;SDS011;40172;53.022;7.012;2023-07-31T05:30:23;6.00;;;1.20;;
54259;SDS011;40172;53.022;7.012;2023-07-31T05:32:49;4.25;;;1.15;;
54259;SDS011;40172;53.022;7.012;2023-07-31T05:35:15;4.18;;;1.10;;
54259;SDS011;40172;53.022;7.012;2023-07-31T05:37:41;4.38;;;1.40;;
54259;SDS011;40172;53.022;7.012;2023-07-31T05:40:06;5.18;;;1.20;;
54259;SDS011;40172;53.022;7.012;2023-07-31T05:42:32;4.40;;;1.17;;
54259;SDS011;40172;53.022;7.012;2023-07-31T05:44:58;6.75;;;1.50;;
54259;SDS011;40172;53.022;7.012;2023-07-31T05:47:23;10.57;;;1.73;;
54259;SDS011;40172;53.022;7.012;2023-07-31T05:49:49;7.88;;;1.65;;
54259;SDS011;40172;53.022;7.012;2023-07-31T05:52:17;3.40;;;1.50;;
54259;SDS011;40172;53.022;7.012;2023-07-31T05:54:43;3.92;;;1.60;;
54259;SDS011;40172;53.022;7.012;2023-07-31T05:57:09;5.82;;;1.58;;
54259;SDS011;40172;53.022;7.012;2023-07-31T05:59:34;3.22;;;1.80;;
54259;SDS011;40172;53.022;7.012;2023-07-31T06:02:00;4.85;;;2.00;;
54259;SDS011;40172;53.022;7.012;2023-07-31T06:04:25;7.07;;;2.25;;
54259;SDS011;40172;53.022;7.012;2023-07-31T06:06:51;6.25;;;2.78;;
54259;SDS011;40172;53.022;7.012;2023-07-31T06:09:17;9.15;;;3.38;;
54259;SDS011;40172;53.022;7.012;2023-07-31T06:11:42;14.23;;;4.57;;
54259;SDS011;40172;53.022;7.012;2023-07-31T06:14:08;18.13;;;6.05;;
54259;SDS011;40172;53.022;7.012;2023-07-31T06:16:34;24.30;;;6.53;;
54259;SDS011;40172;53.022;7.012;2023-07-31T06:19:00;23.92;;;7.53;;
54259;SDS011;40172;53.022;7.012;2023-07-31T06:21:26;25.17;;;8.43;;
54259;SDS011;40172;53.022;7.012;2023-07-31T06:23:52;31.08;;;9.13;;
54259;SDS011;40172;53.022;7.012;2023-07-31T06:26:17;31.77;;;10.05;;
54259;SDS011;40172;53.022;7.012;2023-07-31T06:28:43;33.30;;;10.15;;
54259;SDS011;40172;53.022;7.012;2023-07-31T06:31:09;32.30;;;9.73;;
54259;SDS011;40172;53.022;7.012;2023-07-31T06:33:34;42.55;;;11.10;;
54259;SDS011;40172;53.022;7.012;2023-07-31T06:36:00;34.03;;;10.07;;
54259;SDS011;40172;53.022;7.012;2023-07-31T06:38:26;36.78;;;10.68;;
54259;SDS011;40172;53.022;7.012;2023-07-31T06:40:52;40.42;;;11.02;;
54259;SDS011;40172;53.022;7.012;2023-07-31T06:43:18;32.35;;;10.27;;
54259;SDS011;40172;53.022;7.012;2023-07-31T06:45:44;37.42;;;10.05;;
54259;SDS011;40172;53.022;7.012;2023-07-31T06:48:10;32.10;;;9.85;;
54259;SDS011;40172;53.022;7.012;2023-07-31T06:50:36;36.67;;;10.30;;
54259;SDS011;40172;53.022;7.012;2023-07-31T06:53:02;30.92;;;9.88;;
54259;SDS011;40172;53.022;7.012;2023-07-31T06:55:27;26.80;;;8.60;;
54259;SDS011;40172;53.022;7.012;2023-07-31T06:57:54;30.98;;;8.93;;
54259;SDS011;40172;53.022;7.012;2023-07-31T07:00:20;24.35;;;7.72;;
54259;SDS011;40172;53.022;7.012;2023-07-31T07:02:47;25.20;;;8.00;;
54259;SDS011;40172;53.022;7.012;2023-07-31T07:05:13;22.63;;;8.23;;
54259;SDS011;40172;53.022;7.012;2023-07-31T07:07:38;28.60;;;9.05;;
54259;SDS011;40172;53.022;7.012;2023-07-31T07:10:04;25.88;;;8.75;;
54259;SDS011;40172;53.022;7.012;2023-07-31T07:12:31;28.52;;;9.77;;
54259;SDS011;40172;53.022;7.012;2023-07-31T07:14:57;31.25;;;8.90;;
54259;SDS011;40172;53.022;7.012;2023-07-31T07:17:23;31.35;;;10.00;;
54259;SDS011;40172;53.022;7.012;2023-07-31T07:19:49;30.23;;;9.23;;
54259;SDS011;40172;53.022;7.012;2023-07-31T07:22:15;29.60;;;9.07;;
54259;SDS011;40172;53.022;7.012;2023-07-31T07:24:40;30.05;;;9.43;;
54259;SDS011;40172;53.022;7.012;2023-07-31T07:27:06;28.08;;;9.00;;
54259;SDS011;40172;53.022;7.012;2023-07-31T07:29:33;31.02;;;9.88;;
54259;SDS011;40172;53.022;7.012;2023-07-31T07:31:59;28.90;;;9.30;;
54259;SDS011;40172;53.022;7.012;2023-07-31T07:34:26;23.17;;;9.02;;
54259;SDS011;40172;53.022;7.012;2023-07-31T07:36:52;24.33;;;8.93;;
54259;SDS011;40172;53.022;7.012;2023-07-31T07:39:18;28.63;;;9.55;;
54259;SDS011;40172;53.022;7.012;2023-07-31T07:41:44;30.77;;;9.40;;
54259;SDS011;40172;53.022;7.012;2023-07-31T07:44:09;23.70;;;8.75;;
54259;SDS011;40172;53.022;7.012;2023-07-31T07:46:35;20.73;;;7.93;;
54259;SDS011;40172;53.022;7.012;2023-07-31T07:49:00;21.17;;;8.10;;
54259;SDS011;40172;53.022;7.012;2023-07-31T07:51:26;12.68;;;5.80;;
54259;SDS011;40172;53.022;7.012;2023-07-31T07:53:52;15.52;;;6.35;;
54259;SDS011;40172;53.022;7.012;2023-07-31T07:56:17;15.50;;;6.07;;
54259;SDS011;40172;53.022;7.012;2023-07-31T07:58:43;12.52;;;5.55;;
54259;SDS011;40172;53.022;7.012;2023-07-31T08:01:08;11.45;;;4.97;;
54259;SDS011;40172;53.022;7.012;2023-07-31T08:03:34;12.38;;;4.90;;
54259;SDS011;40172;53.022;7.012;2023-07-31T08:06:00;13.90;;;5.10;;
54259;SDS011;40172;53.022;7.012;2023-07-31T08:08:27;12.48;;;5.75;;
54259;SDS011;40172;53.022;7.012;2023-07-31T08:10:53;12.63;;;4.93;;
54259;SDS011;40172;53.022;7.012;2023-07-31T08:13:18;11.07;;;4.60;;
54259;SDS011;40172;53.022;7.012;2023-07-31T08:15:44;11.07;;;4.95;;
54259;SDS011;40172;53.022;7.012;2023-07-31T08:18:10;11.73;;;4.63;;
54259;SDS011;40172;53.022;7.012;2023-07-31T08:20:39;12.73;;;4.25;;
54259;SDS011;40172;53.022;7.012;2023-07-31T08:23:04;11.13;;;4.57;;
54259;SDS011;40172;53.022;7.012;2023-07-31T08:25:30;9.63;;;4.25;;
54259;SDS011;40172;53.022;7.012;2023-07-31T08:27:55;11.02;;;4.40;;
54259;SDS011;40172;53.022;7.012;2023-07-31T08:30:21;10.65;;;4.07;;
54259;SDS011;40172;53.022;7.012;2023-07-31T08:32:47;9.63;;;3.80;;
54259;SDS011;40172;53.022;7.012;2023-07-31T08:35:12;10.57;;;4.20;;
54259;SDS011;40172;53.022;7.012;2023-07-31T08:37:38;8.85;;;3.67;;
54259;SDS011;40172;53.022;7.012;2023-07-31T08:40:04;9.65;;;3.60;;
54259;SDS011;40172;53.022;7.012;2023-07-31T08:42:30;6.85;;;3.67;;
54259;SDS011;40172;53.022;7.012;2023-07-31T08:44:56;8.90;;;4.07;;
54259;SDS011;40172;53.022;7.012;2023-07-31T08:47:25;9.02;;;3.88;;
54259;SDS011;40172;53.022;7.012;2023-07-31T08:49:51;9.75;;;4.10;;
54259;SDS011;40172;53.022;7.012;2023-07-31T08:52:19;8.73;;;4.28;;
54259;SDS011;40172;53.022;7.012;2023-07-31T08:54:45;7.18;;;3.30;;
54259;SDS011;40172;53.022;7.012;2023-07-31T08:57:10;6.68;;;3.58;;
54259;SDS011;40172;53.022;7.012;2023-07-31T08:59:37;6.78;;;3.50;;
54259;SDS011;40172;53.022;7.012;2023-07-31T09:02:07;7.45;;;3.42;;
54259;SDS011;40172;53.022;7.012;2023-07-31T09:04:34;6.70;;;3.33;;
54259;SDS011;40172;53.022;7.012;2023-07-31T09:07:00;6.80;;;2.97;;
54259;SDS011;40172;53.022;7.012;2023-07-31T09:09:29;7.40;;;3.13;;
54259;SDS011;40172;53.022;7.012;2023-07-31T09:11:57;6.20;;;3.28;;
54259;SDS011;40172;53.022;7.012;2023-07-31T09:14:24;6.90;;;3.03;;
54259;SDS011;40172;53.022;7.012;2023-07-31T09:16:54;6.47;;;3.10;;
54259;SDS011;40172;53.022;7.012;2023-07-31T09:19:54;6.18;;;2.85;;
54259;SDS011;40172;53.022;7.012;2023-07-31T09:22:13;5.43;;;2.80;;
54259;SDS011;40172;53.022;7.012;2023-07-31T09:24:38;5.50;;;2.97;;
54259;SDS011;40172;53.022;7.012;2023-07-31T09:27:05;4.13;;;2.53;;
54259;SDS011;40172;53.022;7.012;2023-07-31T09:29:31;4.88;;;2.40;;
54259;SDS011;40172;53.022;7.012;2023-07-31T09:31:56;8.13;;;2.30;;
54259;SDS011;40172;53.022;7.012;2023-07-31T09:34:28;5.15;;;2.13;;
54259;SDS011;40172;53.022;7.012;2023-07-31T09:37:05;4.25;;;2.05;;
54259;SDS011;40172;53.022;7.012;2023-07-31T09:39:31;4.95;;;2.00;;
54259;SDS011;40172;53.022;7.012;2023-07-31T09:41:57;3.08;;;1.60;;
54259;SDS011;40172;53.022;7.012;2023-07-31T09:44:39;2.63;;;1.67;;
54259;SDS011;40172;53.022;7.012;2023-07-31T09:47:06;2.77;;;1.80;;
54259;SDS011;40172;53.022;7.012;2023-07-31T09:49:31;3.33;;;1.80;;
54259;SDS011;40172;53.022;7.012;2023-07-31T09:51:57;3.85;;;1.50;;
54259;SDS011;40172;53.022;7.012;2023-07-31T09:54:22;2.72;;;1.58;;
54259;SDS011;40172;53.022;7.012;2023-07-31T09:56:48;2.10;;;1.40;;
54259;SDS011;40172;53.022;7.012;2023-07-31T09:59:15;2.05;;;1.30;;
54259;SDS011;40172;53.022;7.012;2023-07-31T10:01:42;2.33;;;1.20;;
54259;SDS011;40172;53.022;7.012;2023-07-31T10:04:09;1.77;;;1.10;;
54259;SDS011;40172;53.022;7.012;2023-07-31T10:06:36;1.35;;;0.90;;
54259;SDS011;40172;53.022;7.012;2023-07-31T10:09:04;2.60;;;1.10;;
54259;SDS011;40172;53.022;7.012;2023-07-31T10:11:32;1.67;;;1.20;;
54259;SDS011;40172;53.022;7.012;2023-07-31T10:14:08;1.88;;;1.00;;
54259;SDS011;40172;53.022;7.012;2023-07-31T10:16:37;1.83;;;0.98;;
54259;SDS011;40172;53.022;7.012;2023-07-31T10:19:03;1.23;;;0.80;;
54259;SDS011;40172;53.022;7.012;2023-07-31T10:21:31;1.70;;;0.73;;
54259;SDS011;40172;53.022;7.012;2023-07-31T10:24:01;1.98;;;0.70;;
54259;SDS011;40172;53.022;7.012;2023-07-31T10:26:28;0.70;;;0.70;;
54259;SDS011;40172;53.022;7.012;2023-07-31T10:28:55;2.17;;;1.17;;
54259;SDS011;40172;53.022;7.012;2023-07-31T10:31:22;0.90;;;0.80;;
54259;SDS011;40172;53.022;7.012;2023-07-31T10:33:49;1.40;;;0.98;;
54259;SDS011;40172;53.022;7.012;2023-07-31T10:36:17;0.93;;;0.70;;
54259;SDS011;40172;53.022;7.012;2023-07-31T10:38:44;0.77;;;0.77;;
54259;SDS011;40172;53.022;7.012;2023-07-31T10:41:10;1.70;;;1.00;;
54259;SDS011;40172;53.022;7.012;2023-07-31T10:43:39;2.42;;;0.93;;
54259;SDS011;40172;53.022;7.012;2023-07-31T10:46:08;1.30;;;0.80;;
54259;SDS011;40172;53.022;7.012;2023-07-31T10:48:36;0.88;;;0.77;;
54259;SDS011;40172;53.022;7.012;2023-07-31T10:51:06;3.13;;;0.60;;
54259;SDS011;40172;53.022;7.012;2023-07-31T10:53:34;1.50;;;0.80;;
54259;SDS011;40172;53.022;7.012;2023-07-31T10:56:04;1.02;;;0.80;;
54259;SDS011;40172;53.022;7.012;2023-07-31T10:58:32;1.10;;;0.90;;
54259;SDS011;40172;53.022;7.012;2023-07-31T11:00:59;0.90;;;0.80;;
54259;SDS011;40172;53.022;7.012;2023-07-31T11:03:43;2.42;;;0.80;;
54259;SDS011;40172;53.022;7.012;2023-07-31T11:06:09;1.10;;;1.00;;
54259;SDS011;40172;53.022;7.012;2023-07-31T11:08:41;1.08;;;0.98;;
54259;SDS011;40172;53.022;7.012;2023-07-31T11:11:09;1.53;;;1.07;;
54259;SDS011;40172;53.022;7.012;2023-07-31T11:13:45;1.75;;;1.10;;
54259;SDS011;40172;53.022;7.012;2023-07-31T11:16:16;1.30;;;1.20;;
54259;SDS011;40172;53.022;7.012;2023-07-31T11:18:43;2.40;;;1.40;;
54259;SDS011;40172;53.022;7.012;2023-07-31T11:21:14;1.65;;;1.20;;
54259;SDS011;40172;53.022;7.012;2023-07-31T11:23:39;1.20;;;0.98;;
54259;SDS011;40172;53.022;7.012;2023-07-31T11:26:06;1.55;;;1.35;;
54259;SDS011;40172;53.022;7.012;2023-07-31T11:28:32;3.83;;;1.60;;
54259;SDS011;40172;53.022;7.012;2023-07-31T11:30:59;1.10;;;1.00;;
54259;SDS011;40172;53.022;7.012;2023-07-31T11:33:25;1.17;;;1.08;;
54259;SDS011;40172;53.022;7.012;2023-07-31T11:35:51;1.20;;;1.10;;
54259;SDS011;40172;53.022;7.012;2023-07-31T11:38:27;1.90;;;1.08;;
54259;SDS011;40172;53.022;7.012;2023-07-31T11:40:55;0.60;;;0.60;;
54259;SDS011;40172;53.022;7.012;2023-07-31T11:43:22;0.90;;;0.70;;
54259;SDS011;40172;53.022;7.012;2023-07-31T11:45:49;2.65;;;0.50;;
54259;SDS011;40172;53.022;7.012;2023-07-31T11:48:23;0.75;;;0.70;;
54259;SDS011;40172;53.022;7.012;2023-07-31T11:51:14;2.45;;;0.60;;
54259;SDS011;40172;53.022;7.012;2023-07-31T11:53:43;0.80;;;0.80;;
54259;SDS011;40172;53.022;7.012;2023-07-31T11:56:21;2.40;;;0.80;;
54259;SDS011;40172;53.022;7.012;2023-07-31T11:58:51;0.65;;;0.50;;
54259;SDS011;40172;53.022;7.012;2023-07-31T12:01:19;1.88;;;0.50;;
54259;SDS011;40172;53.022;7.012;2023-07-31T12:03:47;1.75;;;0.50;;
54259;SDS011;40172;53.022;7.012;2023-07-31T12:06:12;1.08;;;0.40;;
54259;SDS011;40172;53.022;7.012;2023-07-31T12:08:38;1.10;;;0.40;;
54259;SDS011;40172;53.022;7.012;2023-07-31T12:11:04;7.72;;;0.85;;
54259;SDS011;40172;53.022;7.012;2023-07-31T12:13:31;2.97;;;0.65;;
54259;SDS011;40172;53.022;7.012;2023-07-31T12:15:59;4.22;;;0.60;;
54259;SDS011;40172;53.022;7.012;2023-07-31T12:18:28;3.33;;;0.75;;
54259;SDS011;40172;53.022;7.012;2023-07-31T12:20:59;1.15;;;0.50;;
54259;SDS011;40172;53.022;7.012;2023-07-31T12:23:30;0.22;;;0.20;;
54259;SDS011;40172;53.022;7.012;2023-07-31T12:26:38;0.40;;;0.40;;
54259;SDS011;40172;53.022;7.012;2023-07-31T12:28:46;3.03;;;0.25;;
54259;SDS011;40172;53.022;7.012;2023-07-31T12:31:13;0.30;;;0.30;;
54259;SDS011;40172;53.022;7.012;2023-07-31T12:33:42;0.65;;;0.30;;
54259;SDS011;40172;53.022;7.012;2023-07-31T12:36:15;0.32;;;0.32;;
54259;SDS011;40172;53.022;7.012;2023-07-31T12:38:42;0.80;;;0.47;;
54259;SDS011;40172;53.022;7.012;2023-07-31T12:41:08;1.27;;;0.50;;
54259;SDS011;40172;53.022;7.012;2023-07-31T12:43:37;1.23;;;0.60;;
54259;SDS011;40172;53.022;7.012;2023-07-31T12:46:04;2.08;;;0.60;;
54259;SDS011;40172;53.022;7.012;2023-07-31T12:48:31;2.38;;;0.70;;
54259;SDS011;40172;53.022;7.012;2023-07-31T12:50:57;1.40;;;0.68;;
54259;SDS011;40172;53.022;7.012;2023-07-31T12:53:22;0.70;;;0.60;;
54259;SDS011;40172;53.022;7.012;2023-07-31T12:55:48;2.25;;;0.70;;
54259;SDS011;40172;53.022;7.012;2023-07-31T12:58:13;0.82;;;0.50;;
54259;SDS011;40172;53.022;7.012;2023-07-31T13:00:39;1.80;;;0.60;;
54259;SDS011;40172;53.022;7.012;2023-07-31T13:03:05;2.53;;;0.80;;
54259;SDS011;40172;53.022;7.012;2023-07-31T13:05:30;3.65;;;1.35;;
54259;SDS011;40172;53.022;7.012;2023-07-31T13:07:56;1.55;;;0.90;;
54259;SDS011;40172;53.022;7.012;2023-07-31T13:10:22;2.97;;;1.00;;
54259;SDS011;40172;53.022;7.012;2023-07-31T13:12:48;1.55;;;0.88;;
54259;SDS011;40172;53.022;7.012;2023-07-31T13:15:14;1.98;;;1.23;;
54259;SDS011;40172;53.022;7.012;2023-07-31T13:17:40;2.40;;;1.20;;
54259;SDS011;40172;53.022;7.012;2023-07-31T13:20:06;2.80;;;1.23;;
54259;SDS011;40172;53.022;7.012;2023-07-31T13:22:32;4.68;;;1.30;;
54259;SDS011;40172;53.022;7.012;2023-07-31T13:24:58;3.92;;;1.40;;
54259;SDS011;40172;53.022;7.012;2023-07-31T13:27:23;2.15;;;1.30;;
54259;SDS011;40172;53.022;7.012;2023-07-31T13:29:49;3.47;;;1.27;;
54259;SDS011;40172;53.022;7.012;2023-07-31T13:32:15;2.78;;;1.30;;
54259;SDS011;40172;53.022;7.012;2023-07-31T13:34:42;3.55;;;1.08;;
54259;SDS011;40172;53.022;7.012;2023-07-31T13:37:07;3.03;;;1.10;;
54259;SDS011;40172;53.022;7.012;2023-07-31T13:39:33;3.42;;;0.98;;
54259;SDS011;40172;53.022;7.012;2023-07-31T13:41:59;2.50;;;1.30;;
54259;SDS011;40172;53.022;7.012;2023-07-31T13:44:25;1.73;;;1.10;;
54259;SDS011;40172;53.022;7.012;2023-07-31T13:46:51;2.22;;;1.38;;
54259;SDS011;40172;53.022;7.012;2023-07-31T13:49:16;3.45;;;1.42;;
54259;SDS011;40172;53.022;7.012;2023-07-31T13:51:42;4.22;;;1.90;;
54259;SDS011;40172;53.022;7.012;2023-07-31T13:54:08;6.55;;;1.90;;
54259;SDS011;40172;53.022;7.012;2023-07-31T13:56:34;5.40;;;1.80;;
54259;SDS011;40172;53.022;7.012;2023-07-31T13:58:59;6.25;;;1.70;;
54259;SDS011;40172;53.022;7.012;2023-07-31T14:01:26;5.28;;;1.95;;
54259;SDS011;40172;53.022;7.012;2023-07-31T14:03:52;3.88;;;1.80;;
54259;SDS011;40172;53.022;7.012;2023-07-31T14:06:17;7.82;;;2.60;;
54259;SDS011;40172;53.022;7.012;2023-07-31T14:08:43;6.70;;;2.42;;
54259;SDS011;40172;53.022;7.012;2023-07-31T14:11:08;8.68;;;2.47;;
54259;SDS011;40172;53.022;7.012;2023-07-31T14:13:34;7.63;;;2.60;;
54259;SDS011;40172;53.022;7.012;2023-07-31T14:15:59;7.80;;;2.50;;
54259;SDS011;40172;53.022;7.012;2023-07-31T14:18:25;6.95;;;2.78;;
54259;SDS011;40172;53.022;7.012;2023-07-31T14:20:51;7.65;;;2.58;;
54259;SDS011;40172;53.022;7.012;2023-07-31T14:23:17;5.25;;;2.40;;
54259;SDS011;40172;53.022;7.012;2023-07-31T14:25:44;6.13;;;2.10;;
54259;SDS011;40172;53.022;7.012;2023-07-31T14:28:10;8.15;;;2.35;;
54259;SDS011;40172;53.022;7.012;2023-07-31T14:30:36;8.05;;;2.70;;
54259;SDS011;40172;53.022;7.012;2023-07-31T14:33:02;8.43;;;2.80;;
54259;SDS011;40172;53.022;7.012;2023-07-31T14:35:27;9.40;;;2.38;;
54259;SDS011;40172;53.022;7.012;2023-07-31T14:37:53;7.68;;;2.28;;
54259;SDS011;40172;53.022;7.012;2023-07-31T14:40:19;9.68;;;2.72;;
54259;SDS011;40172;53.022;7.012;2023-07-31T14:42:45;6.13;;;2.25;;
54259;SDS011;40172;53.022;7.012;2023-07-31T14:45:10;8.70;;;2.58;;
54259;SDS011;40172;53.022;7.012;2023-07-31T14:47:36;11.70;;;2.60;;